Latest Weather Observations for Jacup

IDW60801

Issued at 1:35 pm WST Sunday 21 September 2014 (issued every 30 minutes, with the page automatically refreshed every 10 minutes)

About weather observations | Map of weather stations | Latest weather observations for WA | Other Formats
Station Details ID: 010905 Name: JACUP Lat: -33.89 Lon: 119.11 Height: 305.0 m
Data from the previous 72 hours. | See also: Recent months at Jacup
Date/Time
WST
Temp
°C
App
Temp
°C
Dew
Point
Rel
Hum
%
Delta-T
°C
Wind Press
QNH
hPa
Press
MSL
hPa
Rain
since 9 am
mm
Dir
 
Spd
km/h
Gust
km/h
Spd
kts
Gust
kts
21/01:33pm 29.7 19.7 4.4 20 13.3 NNW 46 78 25 42 1001.3 1001.1 0.0
21/01:30pm 30.1 22.0 5.4 21 13.2 NNW 37 57 20 31 1001.3 1001.1 0.0
21/01:00pm 29.4 17.7 5.5 22 12.7 NNW 56 82 30 44 1001.7 1001.5 0.0
21/12:30pm 28.9 19.1 5.1 22 12.5 NNW 46 82 25 44 1002.4 1002.2 0.0
21/12:00pm 29.0 20.0 6.4 24 12.2 NNW 43 67 23 36 1003.0 1002.8 0.0
21/11:30am 27.8 18.1 6.0 25 11.6 NNW 46 69 25 37 1004.1 1003.9 0.0
21/11:00am 27.4 19.1 6.2 26 11.3 N 39 57 21 31 1004.8 1004.6 0.0
21/10:30am 26.6 18.8 6.6 28 10.6 N 37 59 20 32 1005.4 1005.2 0.0
21/10:00am 25.8 18.2 5.9 28 10.4 N 35 56 19 30 1006.2 1006.1 0.0
21/09:30am 24.2 16.5 5.5 30 9.6 N 35 54 19 29 1007.0 1006.9 0.0
21/09:08am 23.2 16.2 6.0 33 8.9 N 32 50 17 27 1007.6 1007.4 0.0
21/09:00am 22.8 15.8 6.1 34 8.6 N 32 46 17 25 1007.8 1007.6 0.0
21/08:30am 21.2 15.3 7.4 41 7.2 N 28 44 15 24 1008.5 1008.3 0.0
21/08:00am 19.2 14.8 7.6 47 6.0 N 20 32 11 17 1008.8 1008.7 0.0
21/07:30am 16.2 11.1 7.7 57 4.3 N 24 33 13 18 1009.4 1009.3 0.0
21/07:00am 13.0 9.1 7.2 68 2.9 N 17 24 9 13 1009.8 1009.7 0.0
21/06:30am 11.2 7.2 6.5 73 2.3 N 17 24 9 13 1009.8 1009.7 0.0
21/06:00am 10.6 6.5 6.4 75 2.0 N 17 20 9 11 1009.8 1009.7 0.0
21/05:30am 10.7 6.7 6.5 75 2.0 N 17 22 9 12 1009.6 1009.5 0.0
21/05:00am 10.5 6.8 6.3 75 2.0 N 15 19 8 10 1009.7 1009.6 0.0
21/04:30am 11.2 7.1 6.3 72 2.3 N 17 22 9 12 1009.7 1009.6 0.0
21/04:00am 11.6 7.2 6.5 71 2.5 N 19 22 10 12 1009.5 1009.4 0.0
21/03:30am 11.7 7.6 6.4 70 2.5 N 17 20 9 11 1010.0 1009.9 0.0
21/03:00am 12.0 8.0 6.5 69 2.7 N 17 20 9 11 1010.3 1010.2 0.0
21/02:30am 12.1 8.4 6.4 68 2.7 N 15 19 8 10 1010.4 1010.3 0.0
21/02:00am 13.1 9.8 6.2 63 3.3 N 13 17 7 9 1010.8 1010.6 0.0
21/01:30am 13.7 10.3 6.1 60 3.7 N 13 17 7 9 1011.4 1011.2 0.0
21/01:00am 15.2 12.1 5.7 53 4.6 N 11 17 6 9 1011.9 1011.8 0.0
21/12:30am 16.6 13.1 5.6 48 5.4 NNW 13 20 7 11 1012.0 1011.9 0.0
21/12:00am 17.3 14.0 6.5 49 5.4 NNW 13 17 7 9 1011.9 1011.8 0.0
 
Date/Time
WST
Temp
°C
App
Temp
°C
Dew
Point
Rel
Hum
%
Delta-T
°C
Wind Press
QNH
hPa
Press
MSL
hPa
Rain
since 9 am
mm
Dir
 
Spd
km/h
Gust
km/h
Spd
kts
Gust
kts
20/11:30pm 19.8 16.4 5.8 40 7.0 NW 13 19 7 10 1012.0 1011.9 0.0
20/11:00pm 20.5 15.7 5.7 38 7.5 N 20 33 11 18 1012.0 1011.9 0.0
20/10:30pm 21.0 15.8 5.4 36 7.8 N 22 32 12 17 1011.2 1011.0 0.0
20/10:00pm 21.2 16.0 5.5 36 7.9 NNE 22 30 12 16 1010.4 1010.3 0.0
20/09:30pm 19.8 15.0 5.8 40 7.0 NNE 20 28 11 15 1011.2 1011.0 0.0
20/09:00pm 18.2 13.8 6.4 46 5.9 NNE 19 24 10 13 1011.8 1011.7 0.0
20/08:30pm 16.7 13.0 6.5 51 5.1 N 15 17 8 9 1012.1 1012.0 0.0
20/08:00pm 17.4 13.8 6.6 49 5.4 N 15 15 8 8 1012.4 1012.3 0.0
20/07:30pm 17.7 14.4 6.6 48 5.6 N 13 15 7 8 1012.6 1012.5 0.0
20/07:00pm 18.2 15.3 6.4 46 5.9 N 11 13 6 7 1012.6 1012.5 0.0
20/06:30pm 20.5 17.2 6.4 40 7.2 N 13 15 7 8 1012.4 1012.3 0.0
20/06:00pm 22.9 19.9 5.8 33 8.8 N 11 13 6 7 1012.5 1012.4 0.0
20/05:30pm 26.2 22.4 5.7 27 10.7 N 15 22 8 12 1012.3 1012.2 0.0
20/05:00pm 28.0 23.8 5.6 24 11.8 N 17 26 9 14 1012.4 1012.3 0.0
20/04:30pm 28.9 23.2 5.1 22 12.5 N 24 39 13 21 1012.6 1012.5 0.0
20/04:00pm 29.5 24.4 6.2 23 12.5 N 22 35 12 19 1012.8 1012.7 0.0
20/03:30pm 29.8 23.7 6.5 23 12.6 N 28 43 15 23 1013.1 1013.0 0.0
20/03:00pm 29.6 23.7 5.6 22 12.8 N 26 41 14 22 1013.5 1013.4 0.0
20/02:30pm 29.6 23.1 6.3 23 12.5 N 30 50 16 27 1013.8 1013.7 0.0
20/02:23pm 29.7 23.6 6.4 23 12.6 N 28 50 15 27 1013.9 1013.8 0.0
20/02:00pm 29.7 23.7 7.0 24 12.4 N 28 39 15 21 1014.4 1014.3 0.0
20/01:41pm 29.2 23.3 7.7 26 11.8 N 28 46 15 25 1014.5 1014.4 0.0
20/01:30pm 28.7 22.1 7.9 27 11.4 N 32 46 17 25 1014.8 1014.7 0.0
20/01:03pm 28.5 22.8 8.2 28 11.2 N 28 46 15 25 1015.2 1015.1 0.0
20/01:00pm 28.2 23.0 9.0 30 10.7 N 26 39 14 21 1015.3 1015.2 0.0
20/12:30pm 27.8 22.6 10.1 33 10.0 N 28 41 15 22 1015.8 1015.7 0.0
20/12:00pm 26.4 21.1 9.7 35 9.3 N 28 44 15 24 1016.2 1016.1 0.0
20/11:30am 25.9 20.4 10.5 38 8.7 NNE 30 43 16 23 1016.7 1016.6 0.0
20/11:00am 24.7 19.2 10.6 41 7.9 N 30 44 16 24 1017.3 1017.3 0.0
20/10:31am 23.4 17.4 10.1 43 7.4 NNE 32 54 17 29 1017.7 1017.6 0.0
20/10:30am 23.6 17.7 10.6 44 7.3 NNE 32 48 17 26 1017.7 1017.6 0.0
20/10:00am 21.2 15.2 10.7 51 5.8 NNE 33 44 18 24 1018.4 1018.3 0.0
20/09:47am 20.7 15.6 10.5 52 5.6 NNE 28 46 15 25 1018.5 1018.4 0.0
20/09:30am 19.5 14.0 10.5 56 4.9 NNE 30 41 16 22 1018.8 1018.7 0.0
20/09:00am 17.3 12.1 10.4 64 3.7 NNE 28 41 15 22 1019.2 1019.1 0.2
20/08:30am 15.1 10.2 10.1 72 2.7 NNE 26 35 14 19 1019.6 1019.5 0.2
20/08:00am 13.0 8.6 10.4 84 1.4 NNE 24 35 13 19 1020.0 1020.0 0.2
20/07:30am 11.4 6.4 9.7 89 0.9 NNE 26 39 14 21 1020.0 1020.0 0.2
20/07:00am 10.0 5.7 9.2 95 0.4 NNE 22 30 12 16 1020.4 1020.4 0.2
20/06:30am 9.0 4.8 8.4 96 0.3 NNE 20 26 11 14 1020.6 1020.6 0.2
20/06:00am 8.5 4.4 7.9 96 0.3 NNE 19 24 10 13 1020.5 1020.5 0.2
20/05:30am 9.1 5.2 8.5 96 0.3 NNE 19 24 10 13 1020.3 1020.3 0.2
20/05:00am 9.0 5.8 8.4 96 0.3 NNE 15 19 8 10 1020.3 1020.3 0.0
20/04:30am 9.4 5.9 8.8 96 0.3 NNE 17 20 9 11 1020.5 1020.5 0.0
20/04:00am 9.4 7.0 8.8 96 0.3 NNE 11 17 6 9 1020.7 1020.7 0.0
20/03:30am 10.1 7.9 9.5 96 0.3 NNE 11 17 6 9 1020.7 1020.7 0.0
20/03:00am 10.6 7.7 9.8 95 0.4 NE 15 20 8 11 1020.6 1020.6 0.0
20/02:30am 11.3 7.9 10.5 95 0.4 NE 19 26 10 14 1021.0 1020.9 0.0
20/02:00am 11.6 8.3 10.8 95 0.4 NE 19 30 10 16 1021.2 1021.1 0.0
20/01:30am 11.6 9.1 11.0 96 0.3 NE 15 22 8 12 1021.7 1021.6 0.0
20/01:00am 11.1 8.8 10.5 96 0.3 ENE 13 19 7 10 1021.8 1021.7 0.0
20/12:30am 11.3 8.3 10.7 96 0.3 ENE 17 24 9 13 1021.9 1021.8 0.0
20/12:00am 11.6 8.1 11.0 96 0.3 ENE 20 28 11 15 1022.1 1022.0 0.0
 
Date/Time
WST
Temp
°C
App
Temp
°C
Dew
Point
Rel
Hum
%
Delta-T
°C
Wind Press
QNH
hPa
Press
MSL
hPa
Rain
since 9 am
mm
Dir
 
Spd
km/h
Gust
km/h
Spd
kts
Gust
kts
19/11:30pm 11.0 7.9 10.4 96 0.3 ENE 17 24 9 13 1022.2 1022.1 0.0
19/11:00pm 10.9 8.2 10.3 96 0.3 ENE 15 20 8 11 1022.4 1022.3 0.0
19/10:30pm 11.2 8.1 10.4 95 0.4 ENE 17 20 9 11 1022.7 1022.7 0.0
19/10:00pm 11.0 8.6 10.2 95 0.4 ENE 13 20 7 11 1022.9 1022.9 0.0
19/09:30pm 10.7 8.3 9.9 95 0.4 E 13 17 7 9 1023.1 1023.1 0.0
19/09:00pm 10.5 8.7 9.4 93 0.6 E 9 13 5 7 1023.3 1023.3 0.0
19/08:30pm 11.2 9.5 9.8 91 0.7 E 9 11 5 6 1023.3 1023.3 0.0
19/08:00pm 11.8 10.2 10.2 90 0.8 ESE 9 13 5 7 1023.3 1023.3 0.0
19/07:30pm 12.4 10.5 10.5 88 1.0 ESE 11 13 6 7 1023.1 1023.1 0.0
19/07:00pm 12.9 10.6 10.4 85 1.3 ESE 13 15 7 8 1022.7 1022.7 0.0
19/06:30pm 13.9 12.1 10.7 81 1.7 ESE 11 15 6 8 1022.3 1022.2 0.0
19/06:00pm 15.1 12.2 10.9 76 2.3 E 17 22 9 12 1022.0 1021.9 0.0
19/05:30pm 16.7 13.5 11.2 70 3.0 ESE 19 26 10 14 1021.6 1021.5 0.0
19/05:00pm 18.3 14.9 11.4 64 3.8 ESE 20 28 11 15 1021.3 1021.2 0.0
19/04:30pm 19.7 16.4 11.7 60 4.5 ESE 20 28 11 15 1021.1 1021.0 0.0
19/04:00pm 21.6 20.4 9.5 46 6.6 NNE 6 13 3 7 1020.9 1020.8 0.0
19/03:30pm 21.7 21.6 9.6 46 6.6 CALM 0 0 0 0 1021.0 1020.9 0.0
19/03:00pm 22.7 20.4 10.5 46 6.8 WSW 13 20 7 11 1020.9 1020.8 0.0
19/02:30pm 22.6 21.0 10.1 45 6.9 SW 9 17 5 9 1021.1 1021.0 0.0
19/02:00pm 21.7 20.7 10.2 48 6.3 SSW 6 13 3 7 1021.2 1021.1 0.0
19/01:30pm 21.2 19.3 10.4 50 6.0 SSE 11 19 6 10 1021.3 1021.2 0.0
19/01:00pm 21.1 18.9 10.9 52 5.7 SSW 13 20 7 11 1021.6 1021.5 0.0
19/12:30pm 20.8 19.5 11.2 54 5.4 SW 9 19 5 10 1021.8 1021.7 0.0
19/12:00pm 19.7 18.5 11.5 59 4.6 W 9 17 5 9 1022.0 1021.9 0.0
19/11:30am 20.0 18.8 11.7 59 4.7 WSW 9 17 5 9 1022.2 1022.1 0.0
19/11:00am 18.2 16.3 11.7 66 3.6 SW 13 19 7 10 1022.5 1022.4 0.0
19/10:30am 18.1 15.8 11.9 67 3.5 SSW 15 24 8 13 1022.7 1022.7 0.0
19/10:00am 17.4 14.9 12.3 72 2.8 SSW 17 22 9 12 1022.6 1022.5 0.0
19/09:30am 17.0 14.5 12.3 74 2.6 SSW 17 24 9 13 1022.6 1022.5 0.0
19/09:00am 16.1 13.6 12.3 78 2.1 SW 17 26 9 14 1022.5 1022.4 0.0
19/08:30am 16.0 13.5 12.4 79 2.0 SW 17 24 9 13 1022.5 1022.4 0.0
19/08:00am 14.6 12.9 12.3 86 1.3 WSW 13 20 7 11 1022.2 1022.1 0.0
19/07:30am 13.0 12.0 12.2 95 0.4 W 9 11 5 6 1021.8 1021.7 0.0
19/07:00am 11.3 9.9 11.0 98 0.2 W 9 13 5 7 1021.8 1021.7 0.0
19/06:30am 9.7 7.9 9.4 98 0.2 W 9 11 5 6 1021.7 1021.6 0.0
19/06:00am 9.3 7.0 9.0 98 0.1 W 11 15 6 8 1021.3 1021.2 0.0
19/05:30am 9.6 7.4 9.3 98 0.2 W 11 15 6 8 1020.7 1020.7 0.0
19/05:00am 10.2 7.8 9.9 98 0.2 W 13 17 7 9 1020.3 1020.3 0.0
19/04:30am 10.2 8.1 9.9 98 0.2 W 11 17 6 9 1019.9 1019.9 0.0
19/04:00am 11.2 9.0 10.9 98 0.2 W 13 20 7 11 1019.4 1019.3 0.0
19/03:30am 11.8 9.8 11.5 98 0.2 W 13 17 7 9 1019.4 1019.3 0.0
19/03:00am 11.0 9.5 10.7 98 0.2 W 9 13 5 7 1019.4 1019.3 0.0
19/02:30am 10.6 8.6 10.1 97 0.3 W 11 13 6 7 1019.4 1019.3 0.0
19/02:00am 10.9 9.4 10.4 97 0.3 WSW 9 13 5 7 1019.1 1019.0 0.0
19/01:30am 10.6 9.0 10.1 97 0.3 WSW 9 11 5 6 1019.2 1019.1 0.0
19/01:00am 10.7 9.1 10.2 97 0.3 SW 9 13 5 7 1019.2 1019.1 0.0
19/12:30am 11.2 9.4 10.7 97 0.3 SW 11 15 6 8 1019.1 1019.0 0.0
19/12:00am 11.1 9.1 10.3 95 0.4 SW 11 13 6 7 1018.8 1018.7 0.0
 
Date/Time
WST
Temp
°C
App
Temp
°C
Dew
Point
Rel
Hum
%
Delta-T
°C
Wind Press
QNH
hPa
Press
MSL
hPa
Rain
since 9 am
mm
Dir
 
Spd
km/h
Gust
km/h
Spd
kts
Gust
kts
18/11:30pm 12.1 10.8 11.3 95 0.4 WSW 9 11 5 6 1018.5 1018.4 0.0
18/11:00pm 12.8 11.4 12.2 96 0.3 SW 11 15 6 8 1018.6 1018.5 0.0
18/10:30pm 13.2 12.0 12.7 97 0.3 SSW 11 15 6 8 1018.7 1018.6 0.0
18/10:00pm 12.1 10.4 11.3 95 0.4 SSW 11 15 6 8 1018.8 1018.7 0.0
18/09:30pm 12.1 10.7 11.0 93 0.6 SW 9 11 5 6 1018.6 1018.5 0.0
18/09:00pm 12.6 10.5 11.2 91 0.7 SSW 13 17 7 9 1018.7 1018.6 0.0
18/08:30pm 12.8 10.5 10.5 86 1.2 SSW 13 15 7 8 1018.5 1018.4 0.0
18/08:00pm 13.5 11.2 10.5 82 1.6 SSW 13 17 7 9 1018.2 1018.1 0.0
18/07:30pm 14.5 12.2 10.3 76 2.2 SSW 13 20 7 11 1017.7 1017.6 0.0
18/07:00pm 14.4 12.7 10.0 75 2.3 SSE 9 11 5 6 1017.1 1017.1 0.0
18/06:30pm 15.7 14.4 10.0 69 3.0 SE 7 11 4 6 1016.6 1016.5 0.0
18/06:00pm 17.8 15.9 10.4 62 4.0 SSE 11 13 6 7 1016.2 1016.1 0.0
18/05:30pm 19.8 17.5 10.5 55 5.1 SE 13 17 7 9 1015.9 1015.8 0.0
18/05:00pm 21.4 17.8 9.9 48 6.3 ESE 19 24 10 13 1015.4 1015.3 0.0
18/04:30pm 23.0 19.8 11.1 47 6.7 ESE 19 24 10 13 1015.2 1015.1 0.0
18/04:00pm 24.1 21.3 11.4 45 7.2 SE 17 22 9 12 1015.0 1014.9 0.0
18/03:30pm 26.6 24.8 7.1 29 10.5 WNW 6 15 3 8 1014.8 1014.7 0.0
18/03:00pm 26.7 24.9 7.2 29 10.5 SSW 6 13 3 7 1014.9 1014.8 0.0
18/02:30pm 26.2 23.5 7.3 30 10.1 SW 11 22 6 12 1015.1 1015.0 0.0
18/02:00pm 26.5 23.5 7.5 30 10.3 W 13 20 7 11 1015.1 1015.0 0.0

Other Formats:

Comma delimited format used in spreadsheet applications
http://www.bom.gov.au/fwo/IDW60801/IDW60801.95636.axf

JavaScript Object Notation format (JSON) in row-major order
http://www.bom.gov.au/fwo/IDW60801/IDW60801.95636.json